createdAt,value
2022-11-21T00:01:19.247Z,6.77
2022-11-21T00:03:46.698Z,7.03
2022-11-21T00:06:14.168Z,9.77
2022-11-21T00:08:41.689Z,7.00
2022-11-21T00:11:08.908Z,7.17
2022-11-21T00:13:38.608Z,8.10
2022-11-21T00:16:07.910Z,7.13
2022-11-21T00:18:36.006Z,8.90
2022-11-21T00:21:07.442Z,7.50
2022-11-21T00:23:34.715Z,6.68
2022-11-21T00:26:06.150Z,5.80
2022-11-21T00:28:37.815Z,6.90
2022-11-21T00:31:05.794Z,7.55
2022-11-21T00:33:34.790Z,8.77
2022-11-21T00:36:07.054Z,7.87
2022-11-21T00:41:01.369Z,5.90
2022-11-21T00:43:28.516Z,7.37
2022-11-21T00:45:56.905Z,6.17
2022-11-21T00:48:24.271Z,8.77
2022-11-21T00:50:51.851Z,7.57
2022-11-21T00:53:18.989Z,9.67
2022-11-21T00:55:46.161Z,7.10
2022-11-21T00:58:14.033Z,7.23
2022-11-21T01:00:41.394Z,5.73
2022-11-21T01:03:10.092Z,7.77
2022-11-21T01:05:37.526Z,7.03
2022-11-21T01:08:05.206Z,7.40
2022-11-21T01:10:33.493Z,8.33
2022-11-21T01:13:00.547Z,8.77
2022-11-21T01:15:29.346Z,9.10
2022-11-21T01:17:56.284Z,7.47
2022-11-21T01:20:25.071Z,9.37
2022-11-21T01:22:51.917Z,7.47
2022-11-21T01:25:18.876Z,8.63
2022-11-21T01:30:37.637Z,8.90
2022-11-21T01:33:04.714Z,7.03
2022-11-21T01:35:33.177Z,7.87
2022-11-21T01:38:00.126Z,7.83
2022-11-21T01:40:27.185Z,7.30
2022-11-21T01:43:00.577Z,6.80
2022-11-21T01:46:05.303Z,6.93
2022-11-21T01:48:39.201Z,7.13
2022-11-21T01:51:16.093Z,6.23
2022-11-21T01:53:49.292Z,8.30
2022-11-21T01:56:16.725Z,8.53
2022-11-21T01:58:47.258Z,8.80
2022-11-21T02:01:15.068Z,6.47
2022-11-21T02:03:46.348Z,7.37
2022-11-21T02:06:15.075Z,7.78
2022-11-21T02:08:45.021Z,6.77
2022-11-21T02:11:26.342Z,7.33
2022-11-21T02:13:54.472Z,6.67
2022-11-21T02:16:23.371Z,6.03
2022-11-21T02:18:50.224Z,11.17
2022-11-21T02:21:42.733Z,7.80
2022-11-21T02:24:21.261Z,5.47
2022-11-21T02:26:50.039Z,5.73
2022-11-21T02:29:17.325Z,6.33
2022-11-21T02:31:44.663Z,8.80
2022-11-21T02:34:12.389Z,7.33
2022-11-21T02:36:43.900Z,7.03
2022-11-21T02:39:19.835Z,6.28
2022-11-21T02:41:59.272Z,8.03
2022-11-21T02:44:35.116Z,7.17
2022-11-21T02:47:02.294Z,7.40
2022-11-21T02:49:40.700Z,7.17
2022-11-21T02:52:07.738Z,6.43
2022-11-21T02:54:38.183Z,5.50
2022-11-21T02:57:08.093Z,7.37
2022-11-21T02:59:37.110Z,6.37
2022-11-21T03:02:04.153Z,5.90
2022-11-21T03:04:31.011Z,6.63
2022-11-21T03:06:57.963Z,5.30
2022-11-21T03:09:25.101Z,7.27
2022-11-21T03:11:52.191Z,5.37
2022-11-21T03:14:20.571Z,7.20
2022-11-21T03:16:47.694Z,7.17
2022-11-21T03:19:14.882Z,6.13
2022-11-21T03:21:42.353Z,6.67
2022-11-21T03:24:10.404Z,6.43
2022-11-21T03:26:37.549Z,5.00
2022-11-21T03:29:05.327Z,7.87
2022-11-21T03:31:34.125Z,5.07
2022-11-21T03:34:01.482Z,7.20
2022-11-21T03:36:30.877Z,5.13
2022-11-21T03:38:58.872Z,5.40
2022-11-21T03:41:27.241Z,5.63
2022-11-21T03:43:54.297Z,6.83
2022-11-21T03:46:27.481Z,5.23
2022-11-21T03:48:56.080Z,6.60
2022-11-21T03:51:24.267Z,7.27
2022-11-21T03:53:51.611Z,6.33
2022-11-21T03:56:19.307Z,10.90
2022-11-21T03:58:51.348Z,5.47
2022-11-21T04:01:22.736Z,4.20
2022-11-21T04:03:50.572Z,6.93
2022-11-21T04:06:21.722Z,8.70
2022-11-21T04:08:50.723Z,4.80
2022-11-21T04:11:18.907Z,6.13
2022-11-21T04:13:45.948Z,6.50
2022-11-21T04:16:12.893Z,8.27
2022-11-21T04:18:40.153Z,5.53
2022-11-21T04:21:09.154Z,5.13
2022-11-21T04:23:37.945Z,7.30
2022-11-21T04:26:05.407Z,6.63
2022-11-21T04:28:32.875Z,5.63
2022-11-21T04:31:09.922Z,6.50
2022-11-21T04:33:38.439Z,5.57
2022-11-21T04:36:06.016Z,6.20
2022-11-21T04:38:33.175Z,7.27
2022-11-21T04:41:01.959Z,4.40
2022-11-21T04:43:29.108Z,6.43
2022-11-21T04:45:56.167Z,7.53
2022-11-21T04:48:23.114Z,9.80
2022-11-21T04:50:50.062Z,6.97
2022-11-21T04:53:16.915Z,6.47
2022-11-21T04:55:44.170Z,7.37
2022-11-21T04:58:12.358Z,6.30
2022-11-21T05:00:39.404Z,4.80
2022-11-21T05:03:07.715Z,6.50
2022-11-21T05:05:34.962Z,6.80
2022-11-21T05:08:01.902Z,5.83
2022-11-21T05:10:29.270Z,3.53
2022-11-21T05:13:00.508Z,4.00
2022-11-21T05:15:29.008Z,6.75
2022-11-21T05:17:59.117Z,5.47
2022-11-21T05:20:26.284Z,5.77
2022-11-21T05:22:53.138Z,6.03
2022-11-21T05:25:20.183Z,6.60
2022-11-21T05:27:47.145Z,6.30
2022-11-21T05:30:16.442Z,5.87
2022-11-21T05:32:45.128Z,4.43
2022-11-21T05:35:12.104Z,5.00
2022-11-21T05:37:39.143Z,6.90
2022-11-21T05:40:11.191Z,5.50
2022-11-21T05:42:40.025Z,5.63
2022-11-21T05:45:10.038Z,7.13
2022-11-21T05:47:37.271Z,6.23
2022-11-21T05:50:06.877Z,5.23
2022-11-21T05:53:02.174Z,6.83
2022-11-21T05:55:29.232Z,6.53
2022-11-21T05:57:59.054Z,7.30
2022-11-21T06:00:26.337Z,4.20
2022-11-21T06:02:53.226Z,6.27
2022-11-21T06:05:21.460Z,6.00
2022-11-21T06:07:49.430Z,5.30
2022-11-21T06:10:17.284Z,4.17
2022-11-21T06:12:46.806Z,6.47
2022-11-21T06:15:13.812Z,5.83
2022-11-21T06:17:40.663Z,6.80
2022-11-21T06:20:10.126Z,6.07
2022-11-21T06:22:38.384Z,8.73
2022-11-21T06:25:06.702Z,5.57
2022-11-21T06:27:33.840Z,6.03
2022-11-21T06:30:01.076Z,6.37
2022-11-21T06:32:28.518Z,8.17
2022-11-21T06:34:55.721Z,5.90
2022-11-21T06:37:22.949Z,7.40
2022-11-21T06:39:51.156Z,7.53
2022-11-21T06:42:18.185Z,7.03
2022-11-21T06:45:10.625Z,4.00
2022-11-21T06:47:37.485Z,7.73
2022-11-21T06:53:26.799Z,6.90
2022-11-21T06:55:58.626Z,7.90
2022-11-21T06:58:26.018Z,6.07
2022-11-21T07:00:54.095Z,6.93
2022-11-21T07:03:21.609Z,5.43
2022-11-21T07:05:51.824Z,5.90
2022-11-21T07:08:18.908Z,6.60
2022-11-21T07:11:10.165Z,5.67
2022-11-21T07:13:34.915Z,7.17
2022-11-21T07:16:04.306Z,8.30
2022-11-21T07:18:31.564Z,7.83
2022-11-21T07:20:59.527Z,6.30
2022-11-21T07:23:27.160Z,8.97
2022-11-21T07:25:54.747Z,5.60
2022-11-21T07:28:21.917Z,6.90
2022-11-21T07:30:50.100Z,9.67
2022-11-21T07:33:17.346Z,5.13
2022-11-21T07:35:44.257Z,7.10
2022-11-21T07:38:11.765Z,7.93
2022-11-21T07:40:38.884Z,8.43
2022-11-21T07:43:10.869Z,6.40
2022-11-21T07:45:38.684Z,7.33
2022-11-21T07:48:08.179Z,8.20
2022-11-21T07:50:36.230Z,5.77
2022-11-21T07:53:05.882Z,9.47
2022-11-21T07:55:39.052Z,5.60
2022-11-21T07:58:09.806Z,7.13
2022-11-21T08:00:40.039Z,7.97
2022-11-21T08:03:08.454Z,7.03
2022-11-21T08:05:37.028Z,7.77
2022-11-21T08:08:04.958Z,8.13
2022-11-21T08:10:32.058Z,6.83
2022-11-21T08:12:59.071Z,8.43
2022-11-21T08:15:26.449Z,10.57
2022-11-21T08:17:53.493Z,8.60
2022-11-21T08:20:22.492Z,8.33
2022-11-21T08:22:52.725Z,8.83
2022-11-21T08:25:20.024Z,7.97
2022-11-21T08:27:48.543Z,8.03
2022-11-21T08:30:15.646Z,7.13
2022-11-21T08:32:42.593Z,8.13
2022-11-21T08:35:09.928Z,8.00
2022-11-21T08:37:38.456Z,12.37
2022-11-21T08:40:07.413Z,7.87
2022-11-21T08:42:34.563Z,9.03
2022-11-21T08:45:01.506Z,9.30
2022-11-21T08:47:28.560Z,11.10
2022-11-21T08:49:55.505Z,5.97
2022-11-21T08:52:22.779Z,6.27
2022-11-21T08:54:51.047Z,6.83
2022-11-21T08:57:18.102Z,8.63
2022-11-21T08:59:45.157Z,8.60
2022-11-21T09:02:12.077Z,9.35
2022-11-21T09:04:39.200Z,7.97
2022-11-21T09:07:08.237Z,7.93
2022-11-21T09:09:35.779Z,9.65
2022-11-21T09:12:04.617Z,8.00
2022-11-21T09:14:31.979Z,7.07
2022-11-21T09:17:02.036Z,10.75
2022-11-21T09:19:29.884Z,9.10
2022-11-21T09:21:57.167Z,10.90
2022-11-21T09:24:24.726Z,10.93
2022-11-21T09:26:51.713Z,11.18
2022-11-21T09:29:20.207Z,9.48
2022-11-21T09:31:47.567Z,9.05
2022-11-21T09:34:14.509Z,10.05
2022-11-21T09:36:41.849Z,9.52
2022-11-21T09:39:08.717Z,11.13
2022-11-21T09:41:47.236Z,10.10
2022-11-21T09:44:40.020Z,8.85
2022-11-21T09:47:20.791Z,9.15
2022-11-21T09:49:58.037Z,10.20
2022-11-21T09:52:32.289Z,9.85
2022-11-21T09:55:05.510Z,7.10
2022-11-21T09:57:35.229Z,8.73
2022-11-21T10:00:15.381Z,10.30
2022-11-21T10:02:42.500Z,9.95
2022-11-21T10:05:14.184Z,8.18
2022-11-21T10:07:44.191Z,10.07
2022-11-21T10:10:38.665Z,11.13
2022-11-21T10:13:24.335Z,10.52
2022-11-21T10:16:02.470Z,10.98
2022-11-21T10:18:55.787Z,8.65
2022-11-21T10:21:46.729Z,10.32
2022-11-21T10:24:37.102Z,11.82
2022-11-21T10:27:13.780Z,13.18
2022-11-21T10:29:47.172Z,9.52
2022-11-21T10:32:24.146Z,10.45
2022-11-21T10:34:55.502Z,10.30
2022-11-21T10:37:35.464Z,11.33
2022-11-21T10:40:20.554Z,7.60
2022-11-21T10:42:55.036Z,9.27
2022-11-21T10:45:22.478Z,9.32
2022-11-21T10:47:52.425Z,10.32
2022-11-21T10:50:35.523Z,9.43
2022-11-21T10:53:17.916Z,10.10
2022-11-21T10:56:00.931Z,10.48
2022-11-21T10:58:40.906Z,8.38
2022-11-21T11:01:30.324Z,8.90
2022-11-21T11:04:27.769Z,8.90
2022-11-21T11:06:57.063Z,9.40
2022-11-21T11:09:28.362Z,8.55
2022-11-21T11:12:29.492Z,9.50
2022-11-21T11:14:56.871Z,9.07
2022-11-21T11:17:30.381Z,7.38
2022-11-21T11:20:20.209Z,11.18
2022-11-21T11:22:48.081Z,8.23
2022-11-21T11:25:15.251Z,6.82
2022-11-21T11:27:42.311Z,6.22
2022-11-21T11:30:16.848Z,6.55
2022-11-21T11:32:44.208Z,5.90
2022-11-21T11:35:22.807Z,6.65
2022-11-21T11:38:00.100Z,7.95
2022-11-21T11:40:35.771Z,5.78
2022-11-21T11:43:26.965Z,7.93
2022-11-21T11:46:15.833Z,6.47
2022-11-21T11:49:11.017Z,5.55
2022-11-21T11:51:38.757Z,6.55
2022-11-21T11:54:15.450Z,5.55
2022-11-21T11:56:43.713Z,5.82
2022-11-21T11:59:18.257Z,7.38
2022-11-21T12:01:53.828Z,6.45
2022-11-21T12:04:23.503Z,5.88
2022-11-21T12:09:56.709Z,4.70
2022-11-21T12:12:35.731Z,6.18
2022-11-21T12:15:15.277Z,6.38
2022-11-21T12:17:54.664Z,5.93
2022-11-21T12:20:28.301Z,5.53
2022-11-21T12:22:57.504Z,4.82
2022-11-21T12:25:30.612Z,4.78
2022-11-21T12:27:59.327Z,5.47
2022-11-21T12:30:56.346Z,6.63
2022-11-21T12:33:26.562Z,7.10
2022-11-21T12:36:20.543Z,6.15
2022-11-21T12:39:17.564Z,6.13
2022-11-21T12:41:54.500Z,5.38
2022-11-21T12:44:52.126Z,5.07
2022-11-21T12:47:47.990Z,5.30
2022-11-21T12:50:24.007Z,5.80
2022-11-21T12:53:05.056Z,6.25
2022-11-21T12:55:37.400Z,8.80
2022-11-21T12:58:24.340Z,5.97
2022-11-21T13:01:21.825Z,5.53
2022-11-21T13:04:00.066Z,6.18
2022-11-21T13:06:31.694Z,5.93
2022-11-21T13:09:02.590Z,6.82
2022-11-21T13:11:49.270Z,6.25
2022-11-21T13:14:28.382Z,5.88
2022-11-21T13:17:11.849Z,5.50
2022-11-21T13:19:51.351Z,3.80
2022-11-21T13:22:52.238Z,5.35
2022-11-21T13:25:42.115Z,5.25
2022-11-21T13:28:38.416Z,3.95
2022-11-21T13:31:29.781Z,5.25
2022-11-21T13:33:57.214Z,3.95
2022-11-21T13:36:42.414Z,4.15
2022-11-21T13:39:38.497Z,4.07
2022-11-21T13:42:15.761Z,3.72
2022-11-21T13:45:41.636Z,4.05
2022-11-21T13:48:57.061Z,4.05
2022-11-21T13:51:52.731Z,3.50
2022-11-21T13:55:20.679Z,6.90
2022-11-21T13:58:09.911Z,2.97
2022-11-21T14:00:58.497Z,3.72
2022-11-21T14:04:14.668Z,3.03
2022-11-21T14:06:42.683Z,2.78
2022-11-21T14:09:27.868Z,2.88
2022-11-21T14:12:00.509Z,7.38
2022-11-21T14:17:23.372Z,5.30
2022-11-21T14:19:52.104Z,3.17
2022-11-21T14:22:34.727Z,5.03
2022-11-21T14:25:08.840Z,10.60
2022-11-21T14:27:45.159Z,9.50
2022-11-21T14:30:30.621Z,9.50
2022-11-21T14:33:22.057Z,9.57
2022-11-21T14:35:52.823Z,8.88
2022-11-21T14:38:22.279Z,7.75
2022-11-21T14:40:50.232Z,12.70
2022-11-21T14:43:29.986Z,8.77
2022-11-21T14:45:57.583Z,9.15
2022-11-21T14:48:34.812Z,7.40
2022-11-21T14:51:02.602Z,8.50
2022-11-21T14:53:32.074Z,11.15
2022-11-21T14:56:01.765Z,7.85
2022-11-21T14:58:29.005Z,8.35
2022-11-21T15:01:03.337Z,6.95
2022-11-21T15:03:58.824Z,8.45
2022-11-21T15:06:25.816Z,8.57
2022-11-21T15:11:51.728Z,15.07
2022-11-21T15:14:28.693Z,19.20
2022-11-21T15:16:58.270Z,18.88
2022-11-21T15:19:29.354Z,13.73
2022-11-21T15:21:59.609Z,10.27
2022-11-21T15:24:39.460Z,15.88
2022-11-21T15:27:31.724Z,14.90
2022-11-21T15:30:24.512Z,12.70
2022-11-21T15:33:10.392Z,10.20
2022-11-21T15:36:13.939Z,12.77
2022-11-21T15:38:47.071Z,8.88
2022-11-21T15:41:27.216Z,9.98
2022-11-21T15:44:14.208Z,9.98
2022-11-21T15:46:41.310Z,10.68
2022-11-21T15:49:32.008Z,10.73
2022-11-21T15:52:09.571Z,10.32
2022-11-21T15:54:37.226Z,8.48
2022-11-21T15:57:04.432Z,13.07
2022-11-21T15:59:31.844Z,13.90
2022-11-21T16:02:12.536Z,9.80
2022-11-21T16:04:39.989Z,9.63
2022-11-21T16:07:08.520Z,11.95
2022-11-21T16:09:35.784Z,12.50
2022-11-21T16:12:02.884Z,11.05
2022-11-21T16:14:29.910Z,12.13
2022-11-21T16:16:57.031Z,12.32
2022-11-21T16:19:24.165Z,18.33
2022-11-21T16:21:51.175Z,15.75
2022-11-21T16:24:19.934Z,13.95
2022-11-21T16:26:47.225Z,13.57
2022-11-21T16:29:14.297Z,8.73
2022-11-21T16:31:41.968Z,11.52
2022-11-21T16:34:09.033Z,12.85
2022-11-21T16:36:36.438Z,12.27
2022-11-21T16:39:13.512Z,10.02
2022-11-21T16:41:46.128Z,11.13
2022-11-21T16:44:15.799Z,8.60
2022-11-21T16:46:47.203Z,13.07
2022-11-21T16:49:14.658Z,10.90
2022-11-21T16:51:41.747Z,13.30
2022-11-21T16:54:09.659Z,15.73
2022-11-21T16:56:37.258Z,11.35
2022-11-21T16:59:05.985Z,11.90
2022-11-21T17:01:33.208Z,10.17
2022-11-21T17:04:00.587Z,20.25
2022-11-21T17:06:30.360Z,13.25
2022-11-21T17:09:00.048Z,14.13
2022-11-21T17:11:29.484Z,16.40
2022-11-21T17:14:00.700Z,9.60
2022-11-21T17:16:30.393Z,11.50
2022-11-21T17:19:01.067Z,12.88
2022-11-21T17:24:23.137Z,10.20
2022-11-21T17:26:51.952Z,9.25
2022-11-21T17:29:19.051Z,10.83
2022-11-21T17:31:50.308Z,10.30
2022-11-21T17:34:22.426Z,6.60
2022-11-21T17:36:49.880Z,9.33
2022-11-21T17:39:16.832Z,9.30
2022-11-21T17:41:44.921Z,9.17
2022-11-21T17:44:14.792Z,9.07
2022-11-21T17:46:43.014Z,10.30
2022-11-21T17:49:12.213Z,9.27
2022-11-21T17:51:40.538Z,9.80
2022-11-21T17:54:08.877Z,11.00
2022-11-21T17:56:43.848Z,8.20
2022-11-21T17:59:13.121Z,8.67
2022-11-21T18:01:40.453Z,11.07
2022-11-21T18:04:13.566Z,6.50
2022-11-21T18:06:43.947Z,7.00
2022-11-21T18:09:12.421Z,6.63
2022-11-21T18:11:40.830Z,9.43
2022-11-21T18:14:10.012Z,10.77
2022-11-21T18:16:37.818Z,12.23
2022-11-21T18:19:05.052Z,9.77
2022-11-21T18:24:28.106Z,9.60
2022-11-21T18:26:55.366Z,8.60
2022-11-21T18:29:36.159Z,7.37
2022-11-21T18:32:05.038Z,7.30
2022-11-21T18:34:32.093Z,8.47
2022-11-21T18:36:59.059Z,14.47
2022-11-21T18:39:27.620Z,10.07
2022-11-21T18:41:54.838Z,13.10
2022-11-21T18:44:22.732Z,11.20
2022-11-21T18:46:50.138Z,8.30
2022-11-21T18:49:18.020Z,14.60
2022-11-21T18:51:45.360Z,10.20
2022-11-21T18:54:12.502Z,11.40
2022-11-21T18:56:40.928Z,12.23
2022-11-21T18:59:08.058Z,9.33
2022-11-21T19:01:37.168Z,14.30
2022-11-21T19:04:05.033Z,10.47
2022-11-21T19:06:32.425Z,9.40
2022-11-21T19:08:59.693Z,13.70
2022-11-21T19:11:29.217Z,12.57
2022-11-21T19:16:29.500Z,10.83
2022-11-21T19:19:33.623Z,10.47
2022-11-21T19:21:44.168Z,12.27
2022-11-21T19:24:12.359Z,12.70
2022-11-21T19:26:39.421Z,16.30
2022-11-21T19:29:08.088Z,11.20
2022-11-21T19:31:39.304Z,9.30
2022-11-21T19:34:11.801Z,9.53
2022-11-21T19:36:38.883Z,9.47
2022-11-21T19:39:06.008Z,10.70
2022-11-21T19:41:32.966Z,14.60
2022-11-21T19:44:01.895Z,8.93
2022-11-21T19:46:33.038Z,9.43
2022-11-21T19:49:01.201Z,10.43
2022-11-21T19:51:31.171Z,11.87
2022-11-21T19:53:58.290Z,10.83
2022-11-21T19:56:26.443Z,8.50
2022-11-21T19:58:56.156Z,9.70
2022-11-21T20:01:25.826Z,12.70
2022-11-21T20:03:57.848Z,6.40
2022-11-21T20:06:27.354Z,8.20
2022-11-21T20:08:57.060Z,9.70
2022-11-21T20:11:26.165Z,9.30
2022-11-21T20:13:53.750Z,9.50
2022-11-21T20:16:23.773Z,11.00
2022-11-21T20:18:54.359Z,12.27
2022-11-21T20:21:21.452Z,10.67
2022-11-21T20:23:48.503Z,8.17
2022-11-21T20:26:17.277Z,11.87
2022-11-21T20:28:44.899Z,12.13
2022-11-21T20:31:13.967Z,8.60
2022-11-21T20:33:43.379Z,9.83
2022-11-21T20:36:15.151Z,12.87
2022-11-21T20:38:42.263Z,14.68
2022-11-21T20:41:09.970Z,15.93
2022-11-21T20:44:14.399Z,8.77
2022-11-21T20:46:25.254Z,9.20
2022-11-21T20:48:52.686Z,8.77
2022-11-21T20:52:43.304Z,10.03
2022-11-21T20:54:08.366Z,10.73
2022-11-21T20:56:38.139Z,11.03
2022-11-21T20:59:07.510Z,7.35
2022-11-21T21:01:34.722Z,10.03
2022-11-21T21:04:02.312Z,8.03
2022-11-21T21:06:31.024Z,9.40
2022-11-21T21:08:58.392Z,10.80
2022-11-21T21:14:14.494Z,13.83
2022-11-21T21:16:43.578Z,13.33
2022-11-21T21:19:10.480Z,11.00
2022-11-21T21:21:44.898Z,10.20
2022-11-21T21:24:13.215Z,11.60
2022-11-21T21:26:43.633Z,11.57
2022-11-21T21:29:13.370Z,12.63
2022-11-21T21:31:45.238Z,11.03
2022-11-21T21:34:17.217Z,10.90
2022-11-21T21:36:45.470Z,9.33
2022-11-21T21:39:12.656Z,11.30
2022-11-21T21:41:40.103Z,10.57
2022-11-21T21:44:10.153Z,8.47
2022-11-21T21:46:37.365Z,9.20
2022-11-21T21:49:04.250Z,10.10
2022-11-21T21:51:32.461Z,10.17
2022-11-21T21:54:00.746Z,14.77
2022-11-21T21:56:29.682Z,11.87
2022-11-21T21:58:57.892Z,12.47
2022-11-21T22:01:27.360Z,13.53
2022-11-21T22:03:56.361Z,12.30
2022-11-21T22:06:23.685Z,12.03
2022-11-21T22:08:51.669Z,10.47
2022-11-21T22:11:22.643Z,9.97
2022-11-21T22:13:54.129Z,13.17
2022-11-21T22:16:26.602Z,15.07
2022-11-21T22:18:54.365Z,11.93
2022-11-21T22:21:23.754Z,13.23
2022-11-21T22:24:22.913Z,12.33
2022-11-21T22:26:40.602Z,8.47
2022-11-21T22:29:08.056Z,13.73
2022-11-21T22:31:35.320Z,9.70
2022-11-21T22:34:02.455Z,12.57
2022-11-21T22:36:29.839Z,12.33
2022-11-21T22:38:57.094Z,12.77
2022-11-21T22:41:28.752Z,13.07
2022-11-21T22:43:59.364Z,9.90
2022-11-21T22:46:29.186Z,12.87
2022-11-21T22:48:56.686Z,10.17
2022-11-21T22:51:26.209Z,10.20
2022-11-21T22:53:53.771Z,9.27
2022-11-21T22:56:23.324Z,11.80
2022-11-21T22:58:50.713Z,6.93
2022-11-21T23:01:21.472Z,8.90
2022-11-21T23:03:49.352Z,9.83
2022-11-21T23:06:19.282Z,11.00
2022-11-21T23:08:46.983Z,8.00
2022-11-21T23:11:16.446Z,13.10
2022-11-21T23:13:45.711Z,10.67
2022-11-21T23:16:39.984Z,10.30
2022-11-21T23:19:07.031Z,17.10
2022-11-21T23:21:34.046Z,10.50
2022-11-21T23:24:01.196Z,13.17
2022-11-21T23:26:28.114Z,11.57
2022-11-21T23:28:55.033Z,9.13
2022-11-21T23:31:21.887Z,14.57
2022-11-21T23:33:50.426Z,9.93
2022-11-21T23:39:08.532Z,12.07
2022-11-21T23:41:36.082Z,12.83
2022-11-21T23:44:02.943Z,13.53
2022-11-21T23:46:30.599Z,10.97
2022-11-21T23:48:59.305Z,13.97
2022-11-21T23:51:26.487Z,10.37
2022-11-21T23:53:53.405Z,13.83
2022-11-21T23:56:20.356Z,13.30
2022-11-21T23:58:47.314Z,14.80
